createdAt,value
2023-01-29T00:01:06.023Z,17.44
2023-01-29T00:03:34.380Z,17.82
2023-01-29T00:06:02.993Z,17.39
2023-01-29T00:08:30.559Z,16.79
2023-01-29T00:10:57.161Z,17.16
2023-01-29T00:13:24.751Z,17.24
2023-01-29T00:15:53.337Z,17.19
2023-01-29T00:18:20.955Z,18.40
2023-01-29T00:20:49.883Z,17.70
2023-01-29T00:23:18.642Z,17.60
2023-01-29T00:25:46.741Z,16.96
2023-01-29T00:28:15.340Z,17.64
2023-01-29T00:30:43.928Z,18.80
2023-01-29T00:33:12.664Z,18.83
2023-01-29T00:35:41.871Z,19.02
2023-01-29T00:38:10.762Z,18.97
2023-01-29T00:40:38.306Z,18.48
2023-01-29T00:43:05.891Z,19.20
2023-01-29T00:45:34.684Z,19.37
2023-01-29T00:48:03.129Z,18.74
2023-01-29T00:50:31.728Z,18.92
2023-01-29T00:53:00.320Z,18.50
2023-01-29T00:55:27.949Z,18.67
2023-01-29T00:57:56.720Z,18.15
2023-01-29T01:00:26.099Z,18.51
2023-01-29T01:02:55.371Z,17.81
2023-01-29T01:05:22.320Z,17.04
2023-01-29T01:07:51.474Z,17.00
2023-01-29T01:10:18.660Z,16.31
2023-01-29T01:12:47.115Z,15.81
2023-01-29T01:15:15.851Z,15.42
2023-01-29T01:17:43.324Z,14.47
2023-01-29T01:20:11.913Z,15.48
2023-01-29T01:22:40.867Z,15.48
2023-01-29T01:25:09.095Z,14.40
2023-01-29T01:27:36.694Z,15.80
2023-01-29T01:30:05.265Z,13.81
2023-01-29T01:32:32.889Z,13.48
2023-01-29T01:35:00.464Z,13.58
2023-01-29T01:37:28.085Z,12.86
2023-01-29T01:39:56.823Z,13.19
2023-01-29T01:42:24.268Z,14.34
2023-01-29T01:44:51.868Z,13.94
2023-01-29T01:47:20.485Z,14.40
2023-01-29T01:49:48.062Z,14.63
2023-01-29T01:52:15.640Z,13.70
2023-01-29T01:54:43.276Z,13.65
2023-01-29T01:57:10.885Z,13.18
2023-01-29T01:59:40.110Z,13.99
2023-01-29T02:02:07.063Z,13.99
2023-01-29T02:04:34.665Z,12.97
2023-01-29T02:07:03.833Z,13.06
2023-01-29T02:09:31.836Z,14.05
2023-01-29T02:12:00.623Z,13.87
2023-01-29T02:14:28.069Z,14.06
2023-01-29T02:16:56.734Z,14.18
2023-01-29T02:19:24.251Z,13.33
2023-01-29T02:21:52.872Z,12.64
2023-01-29T02:24:20.559Z,12.75
2023-01-29T02:26:49.048Z,12.76
2023-01-29T02:29:17.657Z,11.89
2023-01-29T02:31:46.244Z,12.00
2023-01-29T02:34:13.836Z,11.74
2023-01-29T02:36:41.435Z,12.84
2023-01-29T02:39:10.058Z,13.02
2023-01-29T02:41:37.620Z,12.56
2023-01-29T02:44:04.218Z,12.66
2023-01-29T02:46:31.801Z,12.72
2023-01-29T02:49:00.411Z,12.53
2023-01-29T02:51:26.993Z,11.77
2023-01-29T02:53:55.959Z,11.81
2023-01-29T02:56:23.205Z,11.54
2023-01-29T02:58:50.800Z,11.90
2023-01-29T03:01:19.391Z,11.74
2023-01-29T03:03:47.003Z,11.79
2023-01-29T03:06:15.570Z,11.52
2023-01-29T03:08:44.474Z,12.25
2023-01-29T03:11:11.803Z,12.79
2023-01-29T03:13:39.369Z,12.40
2023-01-29T03:16:07.017Z,12.11
2023-01-29T03:18:34.568Z,10.93
2023-01-29T03:21:01.468Z,11.78
2023-01-29T03:23:28.735Z,11.39
2023-01-29T03:25:56.355Z,10.46
2023-01-29T03:28:23.936Z,11.06
2023-01-29T03:30:52.811Z,11.30
2023-01-29T03:33:19.629Z,10.67
2023-01-29T03:35:47.740Z,11.77
2023-01-29T03:38:16.325Z,11.87
2023-01-29T03:40:42.957Z,10.54
2023-01-29T03:43:11.674Z,11.23
2023-01-29T03:45:39.149Z,10.49
2023-01-29T03:48:06.711Z,10.09
2023-01-29T03:50:35.735Z,11.21
2023-01-29T03:53:02.878Z,10.71
2023-01-29T03:55:30.491Z,10.51
2023-01-29T03:57:58.064Z,11.47
2023-01-29T04:00:25.676Z,11.58
2023-01-29T04:02:52.305Z,11.09
2023-01-29T04:05:19.905Z,10.44
2023-01-29T04:07:47.487Z,11.31
2023-01-29T04:10:16.835Z,12.24
2023-01-29T04:12:43.708Z,11.98
2023-01-29T04:15:12.302Z,11.89
2023-01-29T04:17:39.970Z,12.15
2023-01-29T04:20:07.502Z,12.87
2023-01-29T04:22:35.124Z,12.79
2023-01-29T04:25:03.673Z,13.24
2023-01-29T04:27:32.533Z,13.20
2023-01-29T04:29:59.885Z,12.82
2023-01-29T04:32:28.452Z,11.32
2023-01-29T04:34:56.081Z,11.74
2023-01-29T04:37:24.664Z,11.84
2023-01-29T04:39:53.302Z,12.44
2023-01-29T04:42:24.760Z,12.40
2023-01-29T04:44:51.511Z,13.04
2023-01-29T04:47:19.119Z,12.80
2023-01-29T04:49:46.664Z,13.45
2023-01-29T04:52:14.264Z,13.57
2023-01-29T04:54:42.847Z,14.03
2023-01-29T04:57:11.872Z,13.72
2023-01-29T04:59:40.067Z,13.74
2023-01-29T05:02:08.678Z,13.73
2023-01-29T05:04:37.283Z,13.79
2023-01-29T05:07:05.880Z,13.14
2023-01-29T05:09:34.927Z,13.65
2023-01-29T05:12:02.076Z,12.48
2023-01-29T05:14:30.975Z,13.30
2023-01-29T05:16:58.288Z,13.33
2023-01-29T05:19:26.901Z,13.67
2023-01-29T05:21:55.504Z,13.17
2023-01-29T05:24:23.228Z,12.88
2023-01-29T05:26:52.162Z,12.74
2023-01-29T05:29:20.275Z,12.57
2023-01-29T05:31:48.926Z,12.62
2023-01-29T05:34:17.475Z,12.43
2023-01-29T05:36:45.081Z,13.11
2023-01-29T05:39:14.093Z,12.21
2023-01-29T05:41:41.267Z,13.00
2023-01-29T05:44:10.394Z,12.33
2023-01-29T05:46:38.463Z,12.82
2023-01-29T05:49:08.079Z,12.42
2023-01-29T05:51:35.684Z,13.42
2023-01-29T05:54:04.661Z,12.42
2023-01-29T05:56:31.840Z,12.79
2023-01-29T05:58:59.464Z,13.05
2023-01-29T06:01:27.051Z,12.35
2023-01-29T06:03:54.634Z,11.99
2023-01-29T06:06:23.249Z,11.49
2023-01-29T06:08:51.825Z,11.38
2023-01-29T06:11:18.462Z,11.72
2023-01-29T06:13:46.013Z,11.38
2023-01-29T06:16:14.884Z,11.64
2023-01-29T06:18:43.218Z,12.47
2023-01-29T06:21:11.793Z,12.54
2023-01-29T06:23:40.694Z,12.52
2023-01-29T06:26:09.015Z,12.13
2023-01-29T06:28:37.601Z,13.14
2023-01-29T06:33:54.018Z,12.98
2023-01-29T06:36:21.489Z,11.69
2023-01-29T06:38:49.090Z,12.75
2023-01-29T06:41:17.758Z,13.20
2023-01-29T06:43:45.309Z,12.16
2023-01-29T06:46:12.859Z,12.47
2023-01-29T06:48:41.855Z,12.57
2023-01-29T06:51:09.095Z,12.94
2023-01-29T06:53:36.678Z,13.12
2023-01-29T06:56:05.693Z,13.32
2023-01-29T06:58:32.846Z,12.69
2023-01-29T07:01:01.811Z,11.84
2023-01-29T07:03:30.065Z,11.93
2023-01-29T07:05:58.834Z,11.85
2023-01-29T07:08:27.576Z,13.16
2023-01-29T07:10:56.540Z,12.01
2023-01-29T07:13:23.453Z,11.28
2023-01-29T07:15:51.050Z,11.66
2023-01-29T07:18:19.671Z,10.92
2023-01-29T07:20:47.301Z,11.33
2023-01-29T07:23:14.856Z,12.63
2023-01-29T07:25:42.506Z,11.72
2023-01-29T07:28:10.060Z,11.88
2023-01-29T07:30:39.393Z,12.58
2023-01-29T07:33:07.656Z,14.02
2023-01-29T07:35:35.863Z,13.77
2023-01-29T07:38:03.559Z,11.78
2023-01-29T07:40:31.143Z,10.70
2023-01-29T07:42:57.711Z,10.38
2023-01-29T07:45:26.377Z,11.30
2023-01-29T07:47:53.927Z,12.02
2023-01-29T07:50:21.520Z,13.26
2023-01-29T07:52:50.689Z,13.00
2023-01-29T07:55:17.670Z,13.35
2023-01-29T07:57:46.263Z,15.01
2023-01-29T08:00:15.226Z,14.36
2023-01-29T08:02:42.483Z,13.96
2023-01-29T08:05:11.077Z,14.61
2023-01-29T08:07:38.657Z,15.80
2023-01-29T08:10:08.987Z,15.91
2023-01-29T08:12:35.861Z,18.56
2023-01-29T08:15:04.459Z,20.65
2023-01-29T08:17:32.024Z,18.52
2023-01-29T08:19:59.652Z,20.46
2023-01-29T08:22:28.227Z,16.11
2023-01-29T08:25:06.302Z,14.42
2023-01-29T08:27:35.486Z,15.04
2023-01-29T08:30:03.087Z,14.73
2023-01-29T08:32:30.676Z,14.49
2023-01-29T08:34:58.270Z,13.92
2023-01-29T08:43:02.010Z,14.00
2023-01-29T08:45:29.831Z,13.97
2023-01-29T08:47:57.497Z,14.13
2023-01-29T08:50:25.078Z,14.65
2023-01-29T08:52:51.545Z,14.90
2023-01-29T08:55:18.661Z,17.00
2023-01-29T08:57:46.859Z,15.26
2023-01-29T09:00:13.308Z,15.15
2023-01-29T09:02:39.840Z,17.14
2023-01-29T09:05:06.651Z,16.19
2023-01-29T09:07:33.232Z,15.04
2023-01-29T09:10:02.120Z,15.42
2023-01-29T09:12:29.420Z,14.66
2023-01-29T09:14:56.022Z,16.47
2023-01-29T09:17:22.493Z,15.17
2023-01-29T09:19:49.225Z,16.27
2023-01-29T09:22:16.787Z,15.84
2023-01-29T09:24:43.384Z,15.45
2023-01-29T09:27:09.996Z,16.58
2023-01-29T09:29:37.587Z,16.03
2023-01-29T09:32:04.064Z,15.40
2023-01-29T09:34:30.752Z,15.52
2023-01-29T09:36:57.345Z,14.60
2023-01-29T09:39:24.969Z,14.99
2023-01-29T09:41:51.580Z,14.21
2023-01-29T09:44:18.435Z,15.87
2023-01-29T09:46:45.741Z,15.41
2023-01-29T09:49:13.334Z,15.44
2023-01-29T09:51:40.934Z,14.69
2023-01-29T09:54:08.539Z,15.15
2023-01-29T09:56:35.158Z,14.19
2023-01-29T09:59:02.736Z,14.34
2023-01-29T10:01:29.387Z,14.17
2023-01-29T10:03:56.912Z,14.09
2023-01-29T10:06:23.388Z,14.59
2023-01-29T10:08:49.839Z,13.62
2023-01-29T10:11:16.320Z,14.41
2023-01-29T10:13:42.749Z,14.23
2023-01-29T10:16:09.197Z,14.02
2023-01-29T10:18:36.449Z,13.87
2023-01-29T10:21:05.140Z,14.19
2023-01-29T10:23:34.443Z,14.07
2023-01-29T10:26:02.237Z,13.85
2023-01-29T10:28:29.817Z,14.29
2023-01-29T10:30:56.336Z,13.57
2023-01-29T10:33:24.053Z,14.28
2023-01-29T10:35:50.877Z,14.49
2023-01-29T10:38:19.202Z,13.71
2023-01-29T10:40:46.801Z,13.40
2023-01-29T10:43:16.379Z,13.62
2023-01-29T10:45:43.986Z,13.06
2023-01-29T10:48:10.582Z,12.91
2023-01-29T10:50:37.036Z,12.56
2023-01-29T10:53:03.778Z,13.70
2023-01-29T10:55:30.464Z,13.46
2023-01-29T10:57:59.060Z,13.77
2023-01-29T11:00:25.651Z,14.02
2023-01-29T11:02:52.545Z,13.88
2023-01-29T11:05:20.841Z,14.75
2023-01-29T11:07:48.453Z,15.31
2023-01-29T11:10:16.202Z,14.57
2023-01-29T11:12:43.653Z,15.00
2023-01-29T11:15:11.251Z,14.90
2023-01-29T11:17:37.824Z,15.83
2023-01-29T11:20:05.423Z,15.37
2023-01-29T11:22:32.001Z,14.89
2023-01-29T11:25:00.620Z,14.38
2023-01-29T11:27:28.211Z,14.75
2023-01-29T11:29:55.798Z,15.35
2023-01-29T11:32:24.413Z,14.51
2023-01-29T11:34:51.256Z,14.85
2023-01-29T11:37:18.590Z,15.96
2023-01-29T11:39:46.241Z,15.47
2023-01-29T11:42:14.918Z,15.80
2023-01-29T11:44:42.465Z,14.93
2023-01-29T11:47:11.065Z,15.23
2023-01-29T11:49:37.763Z,15.91
2023-01-29T11:52:05.345Z,16.23
2023-01-29T11:54:32.923Z,17.50
2023-01-29T11:57:00.519Z,17.51
2023-01-29T11:59:28.132Z,16.74
2023-01-29T12:01:54.780Z,17.99
2023-01-29T12:04:22.343Z,17.47
2023-01-29T12:06:51.079Z,17.44
2023-01-29T12:09:18.561Z,17.74
2023-01-29T12:11:45.486Z,17.08
2023-01-29T12:14:13.742Z,15.85
2023-01-29T12:16:42.605Z,17.01
2023-01-29T12:19:11.784Z,16.10
2023-01-29T12:21:41.818Z,15.99
2023-01-29T12:24:08.660Z,16.03
2023-01-29T12:26:35.319Z,16.00
2023-01-29T12:29:01.857Z,16.03
2023-01-29T12:31:29.499Z,16.50
2023-01-29T12:33:57.058Z,16.26
2023-01-29T12:36:23.661Z,16.38
2023-01-29T12:38:50.348Z,16.50
2023-01-29T12:41:17.928Z,17.11
2023-01-29T12:43:44.534Z,18.19
2023-01-29T12:46:12.135Z,19.38
2023-01-29T12:48:38.728Z,18.53
2023-01-29T12:51:05.378Z,18.69
2023-01-29T12:53:31.991Z,17.17
2023-01-29T12:55:58.791Z,16.78
2023-01-29T12:58:26.388Z,17.04
2023-01-29T13:00:53.058Z,16.93
2023-01-29T13:03:19.765Z,16.70
2023-01-29T13:05:46.255Z,16.16
2023-01-29T13:08:13.875Z,15.54
2023-01-29T13:10:40.500Z,15.78
2023-01-29T13:13:07.393Z,16.07
2023-01-29T13:15:34.721Z,15.83
2023-01-29T13:18:01.373Z,20.41
2023-01-29T13:20:30.233Z,22.62
2023-01-29T13:22:57.562Z,16.10
2023-01-29T13:25:24.178Z,16.41
2023-01-29T13:27:52.132Z,15.63
2023-01-29T13:30:20.613Z,17.36
2023-01-29T13:32:48.211Z,17.68
2023-01-29T13:35:17.059Z,16.61
2023-01-29T13:37:45.440Z,18.80
2023-01-29T13:40:13.040Z,17.07
2023-01-29T13:42:40.633Z,16.23
2023-01-29T13:45:08.212Z,16.58
2023-01-29T13:47:35.830Z,17.21
2023-01-29T13:50:02.475Z,15.27
2023-01-29T13:52:30.101Z,15.07
2023-01-29T13:54:57.685Z,15.32
2023-01-29T13:57:25.292Z,15.56
2023-01-29T13:59:52.883Z,15.13
2023-01-29T14:02:19.879Z,26.93
2023-01-29T14:04:48.060Z,17.02
2023-01-29T14:07:16.968Z,15.11
2023-01-29T14:09:44.271Z,15.50
2023-01-29T14:12:11.831Z,16.41
2023-01-29T14:14:39.477Z,17.89
2023-01-29T14:17:07.057Z,16.91
2023-01-29T14:19:34.824Z,16.84
2023-01-29T14:22:02.381Z,16.48
2023-01-29T14:24:30.017Z,15.20
2023-01-29T14:26:56.591Z,16.00
2023-01-29T14:29:33.911Z,15.69
2023-01-29T14:32:01.955Z,26.97
2023-01-29T14:34:29.546Z,21.60
2023-01-29T14:36:56.121Z,15.97
2023-01-29T14:39:22.537Z,17.00
2023-01-29T14:41:48.974Z,16.69
2023-01-29T14:44:15.919Z,17.66
2023-01-29T14:46:42.571Z,16.91
2023-01-29T14:49:10.136Z,17.09
2023-01-29T14:51:36.553Z,21.06
2023-01-29T14:54:02.983Z,17.73
2023-01-29T14:56:29.390Z,17.10
2023-01-29T14:58:56.310Z,15.79
2023-01-29T15:01:23.612Z,15.94
2023-01-29T15:03:50.034Z,16.41
2023-01-29T15:06:16.464Z,21.27
2023-01-29T15:08:43.902Z,27.07
2023-01-29T15:11:10.316Z,18.23
2023-01-29T15:13:36.772Z,17.10
2023-01-29T15:16:03.751Z,16.15
2023-01-29T15:18:30.221Z,17.23
2023-01-29T15:20:56.624Z,16.73
2023-01-29T15:23:26.066Z,16.20
2023-01-29T15:25:52.468Z,16.77
2023-01-29T15:28:18.872Z,16.76
2023-01-29T15:30:45.765Z,16.65
2023-01-29T15:33:12.216Z,18.63
2023-01-29T15:35:38.638Z,17.03
2023-01-29T15:38:05.060Z,16.92
2023-01-29T15:40:31.488Z,19.25
2023-01-29T15:42:57.952Z,18.64
2023-01-29T15:45:24.877Z,17.65
2023-01-29T15:47:51.460Z,17.88
2023-01-29T15:50:17.904Z,18.43
2023-01-29T15:52:44.678Z,17.98
2023-01-29T15:55:11.208Z,17.40
2023-01-29T15:57:37.849Z,17.73
2023-01-29T16:00:04.235Z,18.69
2023-01-29T16:02:30.776Z,18.94
2023-01-29T16:04:57.619Z,18.45
2023-01-29T16:07:24.041Z,18.67
2023-01-29T16:09:50.470Z,17.94
2023-01-29T16:12:16.903Z,17.51
2023-01-29T16:14:43.332Z,17.82
2023-01-29T16:17:10.113Z,17.99
2023-01-29T16:19:36.511Z,18.01
2023-01-29T16:22:02.919Z,17.92
2023-01-29T16:24:29.340Z,18.01
2023-01-29T16:26:56.946Z,17.81
2023-01-29T16:29:23.359Z,17.65
2023-01-29T16:31:49.877Z,17.66
2023-01-29T16:34:16.326Z,17.37
2023-01-29T16:36:42.791Z,17.57
2023-01-29T16:39:09.186Z,17.86
2023-01-29T16:41:36.451Z,20.21
2023-01-29T16:44:03.244Z,19.00
2023-01-29T16:46:30.657Z,18.54
2023-01-29T16:48:57.086Z,20.61
2023-01-29T16:51:23.502Z,20.31
2023-01-29T16:53:49.901Z,19.53
2023-01-29T16:56:17.049Z,19.38
2023-01-29T16:58:43.634Z,19.93
2023-01-29T17:01:10.261Z,20.73
2023-01-29T17:03:36.721Z,20.45
2023-01-29T17:06:03.153Z,22.46
2023-01-29T17:08:29.827Z,22.78
2023-01-29T17:10:56.292Z,23.78
2023-01-29T17:13:22.725Z,23.34
2023-01-29T17:15:49.808Z,23.32
2023-01-29T17:18:17.381Z,24.78
2023-01-29T17:20:44.002Z,24.81
2023-01-29T17:23:10.565Z,23.20
2023-01-29T17:25:37.407Z,24.60
2023-01-29T17:28:04.772Z,22.44
2023-01-29T17:30:32.385Z,21.54
2023-01-29T17:32:59.065Z,22.01
2023-01-29T17:35:25.497Z,21.86
2023-01-29T17:37:52.227Z,23.24
2023-01-29T17:40:18.838Z,23.09
2023-01-29T17:42:45.429Z,23.17
2023-01-29T17:45:11.867Z,23.51
2023-01-29T17:47:38.607Z,24.57
2023-01-29T17:50:06.415Z,24.81
2023-01-29T17:52:33.794Z,26.71
2023-01-29T17:55:01.406Z,27.09
2023-01-29T17:57:27.842Z,25.57
2023-01-29T17:59:54.274Z,23.33
2023-01-29T18:02:28.810Z,22.73
2023-01-29T18:04:56.237Z,24.16
2023-01-29T18:07:22.677Z,22.62
2023-01-29T18:09:51.001Z,22.96
2023-01-29T18:12:17.581Z,22.63
2023-01-29T18:14:44.028Z,26.61
2023-01-29T18:17:10.445Z,42.48
2023-01-29T18:19:36.857Z,24.25
2023-01-29T18:22:03.958Z,22.85
2023-01-29T18:24:31.583Z,22.62
2023-01-29T18:26:59.165Z,22.03
2023-01-29T18:29:25.742Z,22.57
2023-01-29T18:31:53.450Z,21.24
2023-01-29T18:34:19.959Z,21.55
2023-01-29T18:36:46.360Z,21.13
2023-01-29T18:39:12.826Z,21.25
2023-01-29T18:41:39.254Z,22.20
2023-01-29T18:44:05.698Z,22.62
2023-01-29T18:46:33.088Z,26.23
2023-01-29T18:49:00.711Z,29.63
2023-01-29T18:51:28.330Z,28.52
2023-01-29T18:53:56.896Z,26.98
2023-01-29T18:56:25.496Z,26.97
2023-01-29T18:58:53.168Z,26.49
2023-01-29T19:01:22.740Z,25.98
2023-01-29T19:03:49.545Z,24.82
2023-01-29T19:06:15.983Z,23.95
2023-01-29T19:08:42.393Z,23.10
2023-01-29T19:11:08.936Z,23.26
2023-01-29T19:13:35.461Z,23.23
2023-01-29T19:16:01.908Z,23.00
2023-01-29T19:18:28.354Z,32.78
2023-01-29T19:20:55.508Z,30.02
2023-01-29T19:23:23.227Z,27.88
2023-01-29T19:25:50.678Z,25.76
2023-01-29T19:28:17.270Z,26.12
2023-01-29T19:30:43.888Z,26.59
2023-01-29T19:33:10.800Z,26.77
2023-01-29T19:35:37.240Z,26.02
2023-01-29T19:38:04.716Z,25.94
2023-01-29T19:40:32.279Z,25.58
2023-01-29T19:42:58.960Z,25.25
2023-01-29T19:45:49.520Z,27.59
2023-01-29T19:48:12.875Z,26.40
2023-01-29T19:50:39.341Z,25.08
2023-01-29T19:53:05.805Z,24.97
2023-01-29T19:55:32.235Z,23.42
2023-01-29T19:57:58.672Z,23.44
2023-01-29T20:00:25.122Z,23.16
2023-01-29T20:02:51.542Z,23.97
2023-01-29T20:05:18.802Z,22.04
2023-01-29T20:07:45.916Z,22.92
2023-01-29T20:10:12.519Z,22.77
2023-01-29T20:12:39.124Z,22.19
2023-01-29T20:15:06.709Z,22.38
2023-01-29T20:17:34.296Z,22.02
2023-01-29T20:20:02.686Z,25.57
2023-01-29T20:22:29.484Z,28.41
2023-01-29T20:24:57.074Z,27.71
2023-01-29T20:27:23.671Z,26.82
2023-01-29T20:29:50.255Z,40.83
2023-01-29T20:32:17.871Z,32.07
2023-01-29T20:34:45.434Z,25.38
2023-01-29T20:37:11.888Z,24.85
2023-01-29T20:39:38.338Z,28.32
2023-01-29T20:42:05.201Z,28.17
2023-01-29T20:44:32.797Z,25.28
2023-01-29T20:47:01.863Z,25.80
2023-01-29T20:49:28.978Z,25.75
2023-01-29T20:51:55.450Z,25.38
2023-01-29T20:54:21.892Z,26.23
2023-01-29T20:56:48.457Z,27.41
2023-01-29T20:59:15.145Z,26.09
2023-01-29T21:01:42.503Z,24.46
2023-01-29T21:04:08.949Z,23.60
2023-01-29T21:06:35.393Z,23.50
2023-01-29T21:09:01.814Z,24.30
2023-01-29T21:11:28.309Z,24.24
2023-01-29T21:13:55.102Z,24.84
2023-01-29T21:16:21.636Z,23.99
2023-01-29T21:18:48.359Z,22.77
2023-01-29T21:21:14.791Z,22.68
2023-01-29T21:23:41.235Z,22.35
2023-01-29T21:26:08.122Z,21.18
2023-01-29T21:28:35.710Z,19.94
2023-01-29T21:31:02.594Z,19.13
2023-01-29T21:33:29.042Z,18.72
2023-01-29T21:35:55.463Z,19.33
2023-01-29T21:38:21.915Z,18.41
2023-01-29T21:40:48.335Z,17.38
2023-01-29T21:43:14.784Z,16.35
2023-01-29T21:45:41.405Z,17.41
2023-01-29T21:48:08.455Z,16.94
2023-01-29T21:50:35.023Z,17.46
2023-01-29T21:53:01.644Z,17.29
2023-01-29T21:55:29.233Z,17.25
2023-01-29T21:57:55.659Z,17.52
2023-01-29T22:00:22.079Z,18.45
2023-01-29T22:02:48.549Z,18.46
2023-01-29T22:05:19.620Z,18.91
2023-01-29T22:07:48.292Z,19.32
2023-01-29T22:10:16.278Z,19.34
2023-01-29T22:12:43.406Z,19.94
2023-01-29T22:15:09.994Z,18.80
2023-01-29T22:17:36.594Z,19.70
2023-01-29T22:20:04.168Z,21.20
2023-01-29T22:22:31.764Z,20.88
2023-01-29T22:24:59.372Z,21.26
2023-01-29T22:27:25.831Z,20.38
2023-01-29T22:29:52.544Z,20.43
2023-01-29T22:32:20.157Z,19.10
2023-01-29T22:34:47.731Z,17.76
2023-01-29T22:37:15.328Z,17.71
2023-01-29T22:39:41.926Z,18.33
2023-01-29T22:42:09.530Z,18.74
2023-01-29T22:44:37.090Z,18.39
2023-01-29T22:47:04.711Z,18.27
2023-01-29T22:49:31.282Z,18.27
2023-01-29T22:52:00.565Z,17.83
2023-01-29T22:54:27.466Z,17.77
2023-01-29T22:56:53.903Z,17.63
2023-01-29T22:59:20.358Z,17.86
2023-01-29T23:01:46.841Z,17.78
2023-01-29T23:04:13.877Z,18.90
2023-01-29T23:06:41.439Z,18.40
2023-01-29T23:09:08.020Z,19.21
2023-01-29T23:11:35.619Z,19.01
2023-01-29T23:14:02.059Z,19.26
2023-01-29T23:16:28.910Z,19.25
2023-01-29T23:18:56.487Z,18.76
2023-01-29T23:21:25.237Z,18.83
2023-01-29T23:23:52.262Z,18.27
2023-01-29T23:26:19.322Z,17.68
2023-01-29T23:28:46.879Z,16.97
2023-01-29T23:31:13.497Z,17.20
2023-01-29T23:33:40.050Z,21.11
2023-01-29T23:36:07.674Z,17.39
2023-01-29T23:38:34.274Z,17.23
2023-01-29T23:41:00.855Z,15.14
2023-01-29T23:43:27.271Z,15.11
2023-01-29T23:45:54.037Z,14.49
2023-01-29T23:48:21.616Z,14.35
2023-01-29T23:50:48.482Z,14.96
2023-01-29T23:53:14.907Z,14.99
2023-01-29T23:55:42.459Z,14.76
2023-01-29T23:58:09.266Z,14.82
